Time,TemperatureF,DewpointF,PressureIn,WindDirection,WindDirectionDegrees,WindSpeedMPH,WindSpeedGustMPH,Humidity,HourlyPrecipIn,Conditions,Clouds,dailyrainin,SolarRadiationWatts/m^2,SoftwareType,DateUTC
2013-06-11 00:01:00,81.0,34.8,29.68,ESE,122,0.0,2.0,19,0.00,,,0.00,0,WeatherCatV1.11B39,2013-06-11 07:01:00,
2013-06-11 00:06:00,80.7,34.6,29.68,ESE,122,0.0,2.0,19,0.00,,,0.00,0,WeatherCatV1.11B39,2013-06-11 07:06:00,
2013-06-11 00:11:00,81.1,34.9,29.68,ESE,120,2.0,2.0,19,0.00,,,0.00,0,WeatherCatV1.11B39,2013-06-11 07:11:00,
2013-06-11 00:16:00,81.2,33.6,29.68,ESE,120,1.0,3.0,18,0.00,,,0.00,0,WeatherCatV1.11B39,2013-06-11 07:16:00,
2013-06-11 00:21:00,81.3,33.7,29.68,ESE,120,0.0,1.0,18,0.00,,,0.00,0,WeatherCatV1.11B39,2013-06-11 07:21:00,
2013-06-11 00:26:00,81.3,35.1,29.67,ESE,119,1.0,2.0,19,0.00,,,0.00,0,WeatherCatV1.11B39,2013-06-11 07:26:00,
2013-06-11 00:31:00,81.2,35.0,29.67,ESE,119,2.0,2.0,19,0.00,,,0.00,0,WeatherCatV1.11B39,2013-06-11 07:31:00,
2013-06-11 00:36:00,81.2,35.0,29.67,ESE,119,1.0,2.0,19,0.00,,,0.00,0,WeatherCatV1.11B39,2013-06-11 07:36:00,
2013-06-11 00:41:00,80.8,34.7,29.67,ESE,118,1.0,2.0,19,0.00,,,0.00,0,WeatherCatV1.11B39,2013-06-11 07:41:00,
2013-06-11 00:46:00,80.2,34.2,29.67,ESE,118,1.0,2.0,19,0.00,,,0.00,0,WeatherCatV1.11B39,2013-06-11 07:46:00,
2013-06-11 00:51:00,80.0,34.0,29.67,ESE,117,3.0,3.0,19,0.00,,,0.00,0,WeatherCatV1.11B39,2013-06-11 07:51:00,
2013-06-11 00:56:00,80.2,34.2,29.67,ESE,116,0.0,2.0,19,0.00,,,0.00,0,WeatherCatV1.11B39,2013-06-11 07:56:00,
2013-06-11 01:01:00,80.3,34.3,29.67,ESE,113,2.0,3.0,19,0.00,,,0.00,0,WeatherCatV1.11B39,2013-06-11 08:01:00,
2013-06-11 01:06:00,80.1,34.1,29.67,ESE,106,0.0,3.0,19,0.00,,,0.00,0,WeatherCatV1.11B39,2013-06-11 08:06:00,
2013-06-11 01:11:00,80.1,34.1,29.68,ESE,103,0.0,3.0,19,0.00,,,0.00,0,WeatherCatV1.11B39,2013-06-11 08:11:00,
2013-06-11 01:16:00,80.2,34.2,29.67,East,85,1.0,2.0,19,0.00,,,0.00,0,WeatherCatV1.11B39,2013-06-11 08:16:00,
2013-06-11 01:21:00,80.4,33.0,29.68,East,89,0.0,2.0,18,0.00,,,0.00,0,WeatherCatV1.11B39,2013-06-11 08:21:00,
2013-06-11 01:26:00,80.6,33.2,29.68,East,89,1.0,3.0,18,0.00,,,0.00,0,WeatherCatV1.11B39,2013-06-11 08:26:00,
2013-06-11 01:31:00,80.1,34.1,29.68,East,89,2.0,2.0,19,0.00,,,0.00,0,WeatherCatV1.11B39,2013-06-11 08:31:00,
2013-06-11 01:36:00,79.5,33.6,29.68,East,87,1.0,1.0,19,0.00,,,0.00,0,WeatherCatV1.11B39,2013-06-11 08:36:00,
2013-06-11 01:41:00,79.2,33.4,29.68,East,87,0.0,1.0,19,0.00,,,0.00,0,WeatherCatV1.11B39,2013-06-11 08:41:00,
2013-06-11 01:46:00,78.4,32.7,29.67,East,87,0.0,1.0,19,0.00,,,0.00,0,WeatherCatV1.11B39,2013-06-11 08:46:00,
2013-06-11 01:51:00,77.5,33.3,29.67,East,87,0.0,1.0,20,0.00,,,0.00,0,WeatherCatV1.11B39,2013-06-11 08:51:00,
2013-06-11 01:56:00,76.7,35.0,29.67,East,87,0.0,1.0,22,0.00,,,0.00,0,WeatherCatV1.11B39,2013-06-11 08:56:00,
2013-06-11 02:01:00,76.3,33.5,29.67,East,87,2.0,2.0,21,0.00,,,0.00,0,WeatherCatV1.11B39,2013-06-11 09:01:00,
2013-06-11 02:06:00,76.0,33.2,29.67,East,87,0.0,1.0,21,0.00,,,0.00,0,WeatherCatV1.11B39,2013-06-11 09:06:00,
2013-06-11 02:11:00,75.3,33.8,29.67,East,87,1.0,1.0,22,0.00,,,0.00,0,WeatherCatV1.11B39,2013-06-11 09:11:00,
2013-06-11 02:16:00,74.9,33.5,29.68,East,87,0.0,1.0,22,0.00,,,0.00,0,WeatherCatV1.11B39,2013-06-11 09:16:00,
2013-06-11 02:21:00,74.4,34.2,29.68,East,87,1.0,1.0,23,0.00,,,0.00,0,WeatherCatV1.11B39,2013-06-11 09:21:00,
2013-06-11 02:26:00,74.1,33.9,29.68,East,87,0.0,1.0,23,0.00,,,0.00,0,WeatherCatV1.11B39,2013-06-11 09:26:00,
2013-06-11 02:31:00,73.3,34.3,29.68,East,87,0.0,1.0,24,0.00,,,0.00,0,WeatherCatV1.11B39,2013-06-11 09:31:00,
2013-06-11 02:36:00,72.4,34.6,29.68,East,87,1.0,1.0,25,0.00,,,0.00,0,WeatherCatV1.11B39,2013-06-11 09:36:00,
2013-06-11 02:41:00,72.6,33.7,29.68,East,87,0.0,1.0,24,0.00,,,0.00,0,WeatherCatV1.11B39,2013-06-11 09:41:00,
2013-06-11 02:46:00,72.4,33.6,29.68,East,87,0.0,2.0,24,0.00,,,0.00,0,WeatherCatV1.11B39,2013-06-11 09:46:00,
2013-06-11 02:51:00,72.8,33.9,29.68,East,87,1.0,2.0,24,0.00,,,0.00,0,WeatherCatV1.11B39,2013-06-11 09:51:00,
2013-06-11 02:56:00,73.0,33.0,29.68,East,87,1.0,2.0,23,0.00,,,0.00,0,WeatherCatV1.11B39,2013-06-11 09:56:00,
2013-06-11 03:01:00,73.3,33.3,29.68,East,87,2.0,2.0,23,0.00,,,0.00,0,WeatherCatV1.11B39,2013-06-11 10:01:00,
2013-06-11 03:06:00,73.5,32.3,29.68,East,87,0.0,1.0,22,0.00,,,0.00,0,WeatherCatV1.11B39,2013-06-11 10:06:00,
2013-06-11 03:11:00,73.5,32.3,29.68,East,87,0.0,2.0,22,0.00,,,0.00,0,WeatherCatV1.11B39,2013-06-11 10:11:00,
2013-06-11 03:16:00,73.8,32.6,29.68,East,87,2.0,2.0,22,0.00,,,0.00,0,WeatherCatV1.11B39,2013-06-11 10:16:00,
2013-06-11 03:21:00,73.3,32.2,29.68,East,86,2.0,2.0,22,0.00,,,0.00,0,WeatherCatV1.11B39,2013-06-11 10:21:00,
2013-06-11 03:26:00,73.1,33.1,29.68,East,86,0.0,2.0,23,0.00,,,0.00,0,WeatherCatV1.11B39,2013-06-11 10:26:00,
2013-06-11 03:31:00,73.0,31.9,29.69,East,86,0.0,1.0,22,0.00,,,0.00,0,WeatherCatV1.11B39,2013-06-11 10:31:00,
2013-06-11 03:36:00,72.9,31.8,29.69,East,86,0.0,1.0,22,0.00,,,0.00,0,WeatherCatV1.11B39,2013-06-11 10:36:00,
2013-06-11 03:41:00,72.2,32.3,29.69,East,86,0.0,1.0,23,0.00,,,0.00,0,WeatherCatV1.11B39,2013-06-11 10:41:00,
2013-06-11 03:46:00,72.0,33.2,29.70,East,86,1.0,2.0,24,0.00,,,0.00,0,WeatherCatV1.11B39,2013-06-11 10:46:00,
2013-06-11 03:51:00,71.9,33.1,29.70,East,86,1.0,2.0,24,0.00,,,0.00,0,WeatherCatV1.11B39,2013-06-11 10:51:00,
2013-06-11 03:56:00,72.3,32.4,29.70,East,86,1.0,2.0,23,0.00,,,0.00,0,WeatherCatV1.11B39,2013-06-11 10:56:00,
2013-06-11 04:01:00,72.1,32.3,29.70,East,86,1.0,2.0,23,0.00,,,0.00,0,WeatherCatV1.11B39,2013-06-11 11:01:00,
2013-06-11 04:06:00,71.8,33.1,29.70,East,86,0.0,1.0,24,0.00,,,0.00,0,WeatherCatV1.11B39,2013-06-11 11:06:00,
2013-06-11 04:11:00,71.3,32.6,29.70,East,86,0.0,2.0,24,0.00,,,0.00,0,WeatherCatV1.11B39,2013-06-11 11:11:00,
2013-06-11 04:16:00,71.0,33.4,29.70,East,86,0.0,2.0,25,0.00,,,0.00,0,WeatherCatV1.11B39,2013-06-11 11:16:00,
2013-06-11 04:21:00,70.6,33.1,29.70,East,86,1.0,2.0,25,0.00,,,0.00,0,WeatherCatV1.11B39,2013-06-11 11:21:00,
2013-06-11 04:26:00,70.6,32.0,29.70,East,86,0.0,1.0,24,0.00,,,0.00,0,WeatherCatV1.11B39,2013-06-11 11:26:00,
2013-06-11 04:31:00,70.7,32.1,29.70,East,86,0.0,1.0,24,0.00,,,0.00,0,WeatherCatV1.11B39,2013-06-11 11:31:00,
2013-06-11 04:36:00,70.1,32.6,29.70,East,86,0.0,1.0,25,0.00,,,0.00,0,WeatherCatV1.11B39,2013-06-11 11:36:00,
2013-06-11 04:41:00,69.2,32.9,29.70,East,86,0.0,1.0,26,0.00,,,0.00,0,WeatherCatV1.11B39,2013-06-11 11:41:00,
2013-06-11 04:46:00,68.6,32.3,29.71,East,86,0.0,1.0,26,0.00,,,0.00,0,WeatherCatV1.11B39,2013-06-11 11:46:00,
2013-06-11 04:51:00,68.4,33.1,29.71,East,86,2.0,3.0,27,0.00,,,0.00,0,WeatherCatV1.11B39,2013-06-11 11:51:00,
2013-06-11 04:56:00,68.1,32.9,29.71,East,86,2.0,2.0,27,0.00,,,0.00,0,WeatherCatV1.11B39,2013-06-11 11:56:00,
2013-06-11 05:01:00,67.8,32.6,29.71,East,86,2.0,3.0,27,0.00,,,0.00,0,WeatherCatV1.11B39,2013-06-11 12:01:00,
2013-06-11 05:06:00,68.4,32.2,29.72,East,86,2.0,2.0,26,0.00,,,0.00,0,WeatherCatV1.11B39,2013-06-11 12:06:00,
2013-06-11 05:11:00,68.8,31.5,29.72,NE,51,2.0,5.0,25,0.00,,,0.00,0,WeatherCatV1.11B39,2013-06-11 12:11:00,
2013-06-11 05:16:00,71.0,31.3,29.72,North,3,3.0,5.0,23,0.00,,,0.00,0,WeatherCatV1.11B39,2013-06-11 12:16:00,
2013-06-11 05:21:00,72.3,31.3,29.72,North,3,2.0,3.0,22,0.00,,,0.00,5,WeatherCatV1.11B39,2013-06-11 12:21:00,
2013-06-11 05:26:00,73.3,31.0,29.72,North,1,0.0,3.0,21,0.00,,,0.00,11,WeatherCatV1.11B39,2013-06-11 12:26:00,
2013-06-11 05:31:00,73.5,32.3,29.72,North,1,2.0,2.0,22,0.00,,,0.00,14,WeatherCatV1.11B39,2013-06-11 12:31:00,
2013-06-11 05:36:00,72.0,33.2,29.72,North,1,0.0,0.0,24,0.00,,,0.00,18,WeatherCatV1.11B39,2013-06-11 12:36:00,
2013-06-11 05:41:00,70.9,33.3,29.72,North,1,1.0,1.0,25,0.00,,,0.00,21,WeatherCatV1.11B39,2013-06-11 12:41:00,
2013-06-11 05:46:00,70.4,32.9,29.73,North,1,0.0,1.0,25,0.00,,,0.00,35,WeatherCatV1.11B39,2013-06-11 12:46:00,
2013-06-11 05:51:00,70.3,33.8,29.73,North,1,0.0,1.0,26,0.00,,,0.00,44,WeatherCatV1.11B39,2013-06-11 12:51:00,
2013-06-11 05:56:00,70.5,34.9,29.73,North,1,0.0,1.0,27,0.00,,,0.00,54,WeatherCatV1.11B39,2013-06-11 12:56:00,
2013-06-11 06:01:00,71.1,34.5,29.73,NNE,30,0.0,1.0,26,0.00,,,0.00,69,WeatherCatV1.11B39,2013-06-11 13:01:00,
2013-06-11 06:06:00,72.1,34.3,29.73,NNE,30,0.0,1.0,25,0.00,,,0.00,83,WeatherCatV1.11B39,2013-06-11 13:06:00,
2013-06-11 06:11:00,73.1,35.2,29.73,NNE,30,1.0,1.0,25,0.00,,,0.00,98,WeatherCatV1.11B39,2013-06-11 13:11:00,
2013-06-11 06:16:00,74.0,34.9,29.74,NNE,30,2.0,2.0,24,0.00,,,0.00,116,WeatherCatV1.11B39,2013-06-11 13:16:00,
2013-06-11 06:21:00,74.7,34.4,29.73,NNE,30,2.0,2.0,23,0.00,,,0.00,132,WeatherCatV1.11B39,2013-06-11 13:21:00,
2013-06-11 06:26:00,75.4,33.9,29.74,NNE,30,1.0,1.0,22,0.00,,,0.00,148,WeatherCatV1.11B39,2013-06-11 13:26:00,
2013-06-11 06:31:00,76.3,34.6,29.74,NNE,30,0.0,0.0,22,0.00,,,0.00,165,WeatherCatV1.11B39,2013-06-11 13:31:00,
2013-06-11 06:33:00,76.5,34.8,29.74,NNE,30,0.0,0.0,22,0.00,,,0.00,171,WeatherCatV1.11B39,2013-06-11 13:33:00,
2013-06-11 06:38:00,77.1,36.4,29.73,NNE,30,0.0,1.0,23,0.00,,,0.00,186,WeatherCatV1.11B39,2013-06-11 13:38:00,
2013-06-11 06:43:00,78.5,35.3,29.73,NNE,30,0.0,1.0,21,0.00,,,0.00,200,WeatherCatV1.11B39,2013-06-11 13:43:00,
2013-06-11 06:48:00,79.4,36.0,29.73,NNE,30,0.0,0.0,21,0.00,,,0.00,218,WeatherCatV1.11B39,2013-06-11 13:48:00,
2013-06-11 06:53:00,80.2,36.7,29.73,NNE,30,0.0,0.0,21,0.00,,,0.00,232,WeatherCatV1.11B39,2013-06-11 13:53:00,
2013-06-11 06:58:00,80.9,38.5,29.73,NNE,30,0.0,0.0,22,0.00,,,0.00,246,WeatherCatV1.11B39,2013-06-11 13:58:00,
2013-06-11 07:03:00,81.3,38.8,29.73,NNE,30,1.0,1.0,22,0.00,,,0.00,265,WeatherCatV1.11B39,2013-06-11 14:03:00,
2013-06-11 07:08:00,81.7,40.3,29.73,NNE,30,0.0,2.0,23,0.00,,,0.00,279,WeatherCatV1.11B39,2013-06-11 14:08:00,
2013-06-11 07:13:00,82.2,40.7,29.73,NNE,30,1.0,2.0,23,0.00,,,0.00,295,WeatherCatV1.11B39,2013-06-11 14:13:00,
2013-06-11 07:18:00,83.0,40.2,29.73,NNE,30,2.0,2.0,22,0.00,,,0.00,313,WeatherCatV1.11B39,2013-06-11 14:18:00,
2013-06-11 07:23:00,83.8,39.7,29.74,NNE,30,0.0,2.0,21,0.00,,,0.00,329,WeatherCatV1.11B39,2013-06-11 14:23:00,
2013-06-11 07:28:00,84.6,40.3,29.74,NNE,30,0.0,0.0,21,0.00,,,0.00,345,WeatherCatV1.11B39,2013-06-11 14:28:00,
2013-06-11 07:33:00,85.5,37.1,29.73,NNE,30,0.0,1.0,18,0.00,,,0.00,362,WeatherCatV1.11B39,2013-06-11 14:33:00,
2013-06-11 07:38:00,86.2,37.7,29.74,NNE,30,0.0,1.0,18,0.00,,,0.00,378,WeatherCatV1.11B39,2013-06-11 14:38:00,
2013-06-11 07:43:00,86.8,36.7,29.74,NNE,30,0.0,2.0,17,0.00,,,0.00,394,WeatherCatV1.11B39,2013-06-11 14:43:00,
2013-06-11 07:48:00,87.2,35.5,29.74,NNE,30,1.0,2.0,16,0.00,,,0.00,411,WeatherCatV1.11B39,2013-06-11 14:48:00,
2013-06-11 07:53:00,87.9,36.1,29.74,NNE,30,1.0,1.0,16,0.00,,,0.00,429,WeatherCatV1.11B39,2013-06-11 14:53:00,
2013-06-11 07:58:00,88.7,35.1,29.74,NNE,30,0.0,1.0,15,0.00,,,0.00,443,WeatherCatV1.11B39,2013-06-11 14:58:00,
2013-06-11 08:03:00,89.3,33.8,29.74,North,3,2.0,4.0,14,0.00,,,0.00,462,WeatherCatV1.11B39,2013-06-11 15:03:00,
2013-06-11 08:08:00,89.3,33.8,29.74,North,358,0.0,2.0,14,0.00,,,0.00,478,WeatherCatV1.11B39,2013-06-11 15:08:00,
2013-06-11 08:13:00,89.8,34.2,29.74,North,357,1.0,3.0,14,0.00,,,0.00,492,WeatherCatV1.11B39,2013-06-11 15:13:00,
2013-06-11 08:18:00,90.1,34.5,29.74,West,276,0.0,3.0,14,0.00,,,0.00,510,WeatherCatV1.11B39,2013-06-11 15:18:00,
2013-06-11 08:23:00,90.3,34.6,29.74,West,276,3.0,3.0,14,0.00,,,0.00,526,WeatherCatV1.11B39,2013-06-11 15:23:00,
2013-06-11 08:28:00,90.8,33.2,29.74,West,276,1.0,2.0,13,0.00,,,0.00,540,WeatherCatV1.11B39,2013-06-11 15:28:00,
2013-06-11 08:33:00,91.4,33.6,29.74,West,274,1.0,3.0,13,0.00,,,0.00,555,WeatherCatV1.11B39,2013-06-11 15:33:00,
2013-06-11 08:38:00,91.4,33.6,29.73,SSW,207,4.0,6.0,13,0.00,,,0.00,568,WeatherCatV1.11B39,2013-06-11 15:38:00,
2013-06-11 08:43:00,92.3,34.3,29.74,WSW,257,3.0,6.0,13,0.00,,,0.00,585,WeatherCatV1.11B39,2013-06-11 15:43:00,
2013-06-11 08:48:00,92.4,32.4,29.73,WNW,289,3.0,3.0,12,0.00,,,0.00,603,WeatherCatV1.11B39,2013-06-11 15:48:00,
2013-06-11 08:53:00,92.6,34.5,29.73,WSW,237,2.0,7.0,13,0.00,,,0.00,617,WeatherCatV1.11B39,2013-06-11 15:53:00,
2013-06-11 08:58:00,92.6,34.5,29.73,West,261,3.0,5.0,13,0.00,,,0.00,631,WeatherCatV1.11B39,2013-06-11 15:58:00,
2013-06-11 09:03:00,92.9,34.8,29.73,WSW,251,4.0,5.0,13,0.00,,,0.00,647,WeatherCatV1.11B39,2013-06-11 16:03:00,
2013-06-11 09:08:00,93.1,34.9,29.73,West,265,4.0,5.0,13,0.00,,,0.00,661,WeatherCatV1.11B39,2013-06-11 16:08:00,
2013-06-11 09:13:00,93.6,33.3,29.73,WNW,290,3.0,6.0,12,0.00,,,0.00,673,WeatherCatV1.11B39,2013-06-11 16:13:00,
2013-06-11 09:18:00,93.7,33.4,29.73,WSW,255,4.0,7.0,12,0.00,,,0.00,689,WeatherCatV1.11B39,2013-06-11 16:18:00,
2013-06-11 09:23:00,94.0,31.5,29.73,WSW,241,6.0,9.0,11,0.00,,,0.00,701,WeatherCatV1.11B39,2013-06-11 16:23:00,
2013-06-11 09:28:00,94.8,32.1,29.73,WSW,240,3.0,6.0,11,0.00,,,0.00,715,WeatherCatV1.11B39,2013-06-11 16:28:00,
2013-06-11 09:33:00,95.2,32.4,29.73,WSW,249,5.0,6.0,11,0.00,,,0.00,731,WeatherCatV1.11B39,2013-06-11 16:33:00,
2013-06-11 09:38:00,95.9,32.9,29.73,SW,236,4.0,8.0,11,0.00,,,0.00,742,WeatherCatV1.11B39,2013-06-11 16:38:00,
2013-06-11 09:43:00,96.5,31.0,29.73,West,276,4.0,7.0,10,0.00,,,0.00,752,WeatherCatV1.11B39,2013-06-11 16:43:00,
2013-06-11 09:48:00,95.6,30.3,29.73,WSW,241,5.0,5.0,10,0.00,,,0.00,768,WeatherCatV1.11B39,2013-06-11 16:48:00,
2013-06-11 09:53:00,96.1,30.7,29.73,WSW,242,3.0,3.0,10,0.00,,,0.00,777,WeatherCatV1.11B39,2013-06-11 16:53:00,
2013-06-11 09:58:00,96.3,30.9,29.73,West,281,2.0,5.0,10,0.00,,,0.00,788,WeatherCatV1.11B39,2013-06-11 16:58:00,
2013-06-11 10:03:00,95.8,32.8,29.73,WNW,284,3.0,7.0,11,0.00,,,0.00,803,WeatherCatV1.11B39,2013-06-11 17:03:00,
2013-06-11 10:08:00,96.5,33.4,29.74,WSW,258,4.0,8.0,11,0.00,,,0.00,810,WeatherCatV1.11B39,2013-06-11 17:08:00,
2013-06-11 10:13:00,97.1,31.5,29.73,WSW,242,3.0,6.0,10,0.00,,,0.00,821,WeatherCatV1.11B39,2013-06-11 17:13:00,
2013-06-11 10:18:00,97.2,31.5,29.73,WNW,290,4.0,5.0,10,0.00,,,0.00,833,WeatherCatV1.11B39,2013-06-11 17:18:00,
2013-06-11 10:23:00,98.0,32.1,29.73,WSW,254,4.0,6.0,10,0.00,,,0.00,842,WeatherCatV1.11B39,2013-06-11 17:23:00,
2013-06-11 10:28:00,98.1,32.2,29.73,West,267,3.0,7.0,10,0.00,,,0.00,853,WeatherCatV1.11B39,2013-06-11 17:28:00,
2013-06-11 10:33:00,98.0,32.1,29.73,South,188,2.0,5.0,10,0.00,,,0.00,860,WeatherCatV1.11B39,2013-06-11 17:33:00,
2013-06-11 10:38:00,99.6,30.7,29.73,WSW,253,7.0,7.0,9,0.00,,,0.00,870,WeatherCatV1.11B39,2013-06-11 17:38:00,
2013-06-11 10:43:00,98.7,30.1,29.73,NNW,343,0.0,5.0,9,0.00,,,0.00,881,WeatherCatV1.11B39,2013-06-11 17:43:00,
2013-06-11 10:48:00,98.5,27.0,29.73,WSW,240,2.0,5.0,8,0.00,,,0.00,886,WeatherCatV1.11B39,2013-06-11 17:48:00,
2013-06-11 10:53:00,98.5,29.9,29.73,SSE,163,3.0,6.0,9,0.00,,,0.00,891,WeatherCatV1.11B39,2013-06-11 17:53:00,
2013-06-11 10:58:00,100.6,31.5,29.73,South,178,4.0,5.0,9,0.00,,,0.00,900,WeatherCatV1.11B39,2013-06-11 17:58:00,
2013-06-11 11:03:00,100.9,28.8,29.73,SW,236,8.0,8.0,8,0.00,,,0.00,909,WeatherCatV1.11B39,2013-06-11 18:03:00,
2013-06-11 11:08:00,101.3,29.1,29.72,WSW,246,4.0,9.0,8,0.00,,,0.00,914,WeatherCatV1.11B39,2013-06-11 18:08:00,
2013-06-11 11:13:00,102.1,26.4,29.72,WSW,244,4.0,8.0,7,0.00,,,0.00,921,WeatherCatV1.11B39,2013-06-11 18:13:00,
2013-06-11 11:18:00,101.6,26.1,29.72,NW,305,2.0,4.0,7,0.00,,,0.00,928,WeatherCatV1.11B39,2013-06-11 18:18:00,
2013-06-11 11:23:00,102.3,22.9,29.72,SW,228,5.0,9.0,6,0.00,,,0.00,933,WeatherCatV1.11B39,2013-06-11 18:23:00,
2013-06-11 11:28:00,101.4,25.9,29.72,SSE,168,5.0,7.0,7,0.00,,,0.00,939,WeatherCatV1.11B39,2013-06-11 18:28:00,
2013-06-11 11:33:00,103.1,23.4,29.72,WNW,292,2.0,5.0,6,0.00,,,0.00,942,WeatherCatV1.11B39,2013-06-11 18:33:00,
2013-06-11 11:38:00,102.5,23.0,29.72,WSW,255,1.0,9.0,6,0.00,,,0.00,949,WeatherCatV1.11B39,2013-06-11 18:38:00,
2013-06-11 11:43:00,102.5,26.7,29.71,WNW,291,9.0,12.0,7,0.00,,,0.00,949,WeatherCatV1.11B39,2013-06-11 18:43:00,
2013-06-11 11:48:00,102.8,23.2,29.72,WNW,292,4.0,6.0,6,0.00,,,0.00,954,WeatherCatV1.11B39,2013-06-11 18:48:00,
2013-06-11 11:53:00,102.7,18.9,29.71,WNW,303,2.0,7.0,5,0.00,,,0.00,954,WeatherCatV1.11B39,2013-06-11 18:53:00,
2013-06-11 11:58:00,102.8,23.2,29.71,WSW,245,7.0,8.0,6,0.00,,,0.00,958,WeatherCatV1.11B39,2013-06-11 18:58:00,
2013-06-11 12:03:00,105.2,20.6,29.71,WSW,242,6.0,7.0,5,0.00,,,0.00,954,WeatherCatV1.11B39,2013-06-11 19:03:00,
2013-06-11 12:08:00,104.5,20.1,29.71,SSW,210,7.0,10.0,5,0.00,,,0.00,962,WeatherCatV1.11B39,2013-06-11 19:08:00,
2013-06-11 12:13:00,105.8,21.0,29.71,South,169,3.0,8.0,5,0.00,,,0.00,963,WeatherCatV1.11B39,2013-06-11 19:13:00,
2013-06-11 12:18:00,105.6,15.7,29.71,SSW,201,4.0,8.0,4,0.00,,,0.00,967,WeatherCatV1.11B39,2013-06-11 19:18:00,
2013-06-11 12:23:00,105.9,15.9,29.70,WSW,238,4.0,7.0,4,0.00,,,0.00,967,WeatherCatV1.11B39,2013-06-11 19:23:00,
2013-06-11 12:28:00,105.7,15.8,29.70,SW,234,3.0,7.0,4,0.00,,,0.00,969,WeatherCatV1.11B39,2013-06-11 19:28:00,
2013-06-11 12:33:00,105.7,15.8,29.70,NW,324,6.0,10.0,4,0.00,,,0.00,967,WeatherCatV1.11B39,2013-06-11 19:33:00,
2013-06-11 12:38:00,104.8,15.2,29.70,WSW,247,5.0,9.0,4,0.00,,,0.00,967,WeatherCatV1.11B39,2013-06-11 19:38:00,
2013-06-11 12:43:00,104.4,14.9,29.70,West,266,9.0,11.0,4,0.00,,,0.00,963,WeatherCatV1.11B39,2013-06-11 19:43:00,
2013-06-11 12:48:00,106.2,16.1,29.70,SSW,209,7.0,12.0,4,0.00,,,0.00,965,WeatherCatV1.11B39,2013-06-11 19:48:00,
2013-06-11 12:53:00,106.6,16.4,29.69,West,278,7.0,16.0,4,0.00,,,0.00,962,WeatherCatV1.11B39,2013-06-11 19:53:00,
2013-06-11 12:58:00,106.9,16.6,29.69,SSW,196,9.0,11.0,4,0.00,,,0.00,960,WeatherCatV1.11B39,2013-06-11 19:58:00,
2013-06-11 13:03:00,106.5,16.3,29.69,SW,217,8.0,11.0,4,0.00,,,0.00,956,WeatherCatV1.11B39,2013-06-11 20:03:00,
2013-06-11 13:08:00,106.6,16.4,29.69,WSW,258,9.0,11.0,4,0.00,,,0.00,953,WeatherCatV1.11B39,2013-06-11 20:08:00,
2013-06-11 13:13:00,107.2,16.8,29.68,SW,223,8.0,9.0,4,0.00,,,0.00,946,WeatherCatV1.11B39,2013-06-11 20:13:00,
2013-06-11 13:18:00,106.8,16.5,29.68,SSW,194,7.0,14.0,4,0.00,,,0.00,944,WeatherCatV1.11B39,2013-06-11 20:18:00,
2013-06-11 13:23:00,106.7,16.4,29.68,WSW,243,5.0,7.0,4,0.00,,,0.00,939,WeatherCatV1.11B39,2013-06-11 20:23:00,
2013-06-11 13:28:00,106.7,16.4,29.68,WSW,249,7.0,8.0,4,0.00,,,0.00,937,WeatherCatV1.11B39,2013-06-11 20:28:00,
2013-06-11 13:33:00,106.4,16.2,29.68,SW,222,8.0,12.0,4,0.00,,,0.00,932,WeatherCatV1.11B39,2013-06-11 20:33:00,
2013-06-11 13:38:00,107.8,17.2,29.68,WNW,288,9.0,12.0,4,0.00,,,0.00,925,WeatherCatV1.11B39,2013-06-11 20:38:00,
2013-06-11 13:43:00,107.5,17.0,29.67,South,185,9.0,9.0,4,0.00,,,0.00,919,WeatherCatV1.11B39,2013-06-11 20:43:00,
2013-06-11 13:48:00,107.9,17.2,29.67,WNW,301,6.0,8.0,4,0.00,,,0.00,912,WeatherCatV1.11B39,2013-06-11 20:48:00,
2013-06-11 13:53:00,107.1,16.7,29.67,West,263,9.0,11.0,4,0.00,,,0.00,909,WeatherCatV1.11B39,2013-06-11 20:53:00,
2013-06-11 13:58:00,107.3,16.8,29.67,WNW,303,4.0,10.0,4,0.00,,,0.00,898,WeatherCatV1.11B39,2013-06-11 20:58:00,
2013-06-11 14:03:00,108.8,11.3,29.67,WSW,244,12.0,14.0,3,0.00,,,0.00,889,WeatherCatV1.11B39,2013-06-11 21:03:00,
2013-06-11 14:08:00,108.1,10.8,29.67,WSW,253,9.0,11.0,3,0.00,,,0.00,882,WeatherCatV1.11B39,2013-06-11 21:08:00,
2013-06-11 14:13:00,108.0,10.8,29.66,West,274,9.0,11.0,3,0.00,,,0.00,875,WeatherCatV1.11B39,2013-06-11 21:13:00,
2013-06-11 14:18:00,108.2,17.4,29.66,West,261,5.0,9.0,4,0.00,,,0.00,868,WeatherCatV1.11B39,2013-06-11 21:18:00,
2013-06-11 14:23:00,108.0,10.8,29.66,WSW,239,6.0,12.0,3,0.00,,,0.00,858,WeatherCatV1.11B39,2013-06-11 21:23:00,
2013-06-11 14:28:00,108.2,10.9,29.66,West,279,8.0,13.0,3,0.00,,,0.00,853,WeatherCatV1.11B39,2013-06-11 21:28:00,
2013-06-11 14:33:00,107.2,10.2,29.65,WSW,256,4.0,14.0,3,0.00,,,0.00,838,WeatherCatV1.11B39,2013-06-11 21:33:00,
2013-06-11 14:38:00,106.4,16.2,29.65,WSW,240,12.0,12.0,4,0.00,,,0.00,831,WeatherCatV1.11B39,2013-06-11 21:38:00,
2013-06-11 14:43:00,107.5,10.4,29.65,WNW,300,9.0,14.0,3,0.00,,,0.00,819,WeatherCatV1.11B39,2013-06-11 21:43:00,
2013-06-11 14:48:00,107.5,10.4,29.64,WSW,258,8.0,15.0,3,0.00,,,0.00,810,WeatherCatV1.11B39,2013-06-11 21:48:00,
2013-06-11 14:53:00,107.1,10.2,29.64,West,261,10.0,13.0,3,0.00,,,0.00,796,WeatherCatV1.11B39,2013-06-11 21:53:00,
2013-06-11 14:58:00,107.3,10.3,29.64,NW,304,10.0,10.0,3,0.00,,,0.00,788,WeatherCatV1.11B39,2013-06-11 21:58:00,
2013-06-11 15:03:00,108.1,17.4,29.64,West,269,8.0,15.0,4,0.00,,,0.00,772,WeatherCatV1.11B39,2013-06-11 22:03:00,
2013-06-11 15:08:00,107.9,17.2,29.64,WSW,253,11.0,15.0,4,0.00,,,0.00,758,WeatherCatV1.11B39,2013-06-11 22:08:00,
2013-06-11 15:13:00,107.2,16.8,29.63,WNW,287,6.0,12.0,4,0.00,,,0.00,749,WeatherCatV1.11B39,2013-06-11 22:13:00,
2013-06-11 15:18:00,107.6,17.0,29.63,SW,234,8.0,13.0,4,0.00,,,0.00,735,WeatherCatV1.11B39,2013-06-11 22:18:00,
2013-06-11 15:23:00,107.4,16.9,29.63,West,281,10.0,16.0,4,0.00,,,0.00,721,WeatherCatV1.11B39,2013-06-11 22:23:00,
2013-06-11 15:28:00,107.0,16.6,29.63,West,278,14.0,17.0,4,0.00,,,0.00,708,WeatherCatV1.11B39,2013-06-11 22:28:00,
2013-06-11 15:33:00,107.0,16.6,29.63,SW,228,8.0,17.0,4,0.00,,,0.00,698,WeatherCatV1.11B39,2013-06-11 22:33:00,
2013-06-11 15:38:00,107.2,16.8,29.63,WSW,253,9.0,17.0,4,0.00,,,0.00,686,WeatherCatV1.11B39,2013-06-11 22:38:00,
2013-06-11 15:43:00,107.1,16.7,29.62,West,270,15.0,21.0,4,0.00,,,0.00,666,WeatherCatV1.11B39,2013-06-11 22:43:00,
2013-06-11 15:48:00,106.6,16.4,29.62,WNW,299,12.0,19.0,4,0.00,,,0.00,656,WeatherCatV1.11B39,2013-06-11 22:48:00,
2013-06-11 15:53:00,106.2,16.1,29.62,WSW,245,9.0,11.0,4,0.00,,,0.00,638,WeatherCatV1.11B39,2013-06-11 22:53:00,
2013-06-11 15:58:00,106.3,16.2,29.62,West,272,7.0,14.0,4,0.00,,,0.00,624,WeatherCatV1.11B39,2013-06-11 22:58:00,
2013-06-11 16:03:00,106.4,16.2,29.62,WNW,283,8.0,13.0,4,0.00,,,0.00,612,WeatherCatV1.11B39,2013-06-11 23:03:00,
2013-06-11 16:08:00,106.4,21.4,29.62,West,267,9.0,16.0,5,0.00,,,0.00,594,WeatherCatV1.11B39,2013-06-11 23:08:00,
2013-06-11 16:13:00,106.6,21.6,29.62,WSW,248,10.0,14.0,5,0.00,,,0.00,580,WeatherCatV1.11B39,2013-06-11 23:13:00,
2013-06-11 16:18:00,106.5,21.5,29.62,West,280,9.0,17.0,5,0.00,,,0.00,568,WeatherCatV1.11B39,2013-06-11 23:18:00,
2013-06-11 16:23:00,106.2,21.3,29.61,WSW,251,6.0,14.0,5,0.00,,,0.00,547,WeatherCatV1.11B39,2013-06-11 23:23:00,
2013-06-11 16:28:00,106.5,21.5,29.61,WNW,292,5.0,13.0,5,0.00,,,0.00,534,WeatherCatV1.11B39,2013-06-11 23:28:00,
2013-06-11 16:33:00,106.6,21.6,29.61,West,266,8.0,15.0,5,0.00,,,0.00,519,WeatherCatV1.11B39,2013-06-11 23:33:00,
2013-06-11 16:38:00,106.4,21.4,29.61,WNW,288,11.0,19.0,5,0.00,,,0.00,501,WeatherCatV1.11B39,2013-06-11 23:38:00,
2013-06-11 16:43:00,105.7,20.9,29.61,West,266,6.0,19.0,5,0.00,,,0.00,485,WeatherCatV1.11B39,2013-06-11 23:43:00,
2013-06-11 16:48:00,105.4,20.7,29.61,West,280,12.0,20.0,5,0.00,,,0.00,469,WeatherCatV1.11B39,2013-06-11 23:48:00,
2013-06-11 16:53:00,104.9,20.4,29.61,WNW,295,12.0,17.0,5,0.00,,,0.00,452,WeatherCatV1.11B39,2013-06-11 23:53:00,
2013-06-11 16:58:00,105.1,20.5,29.61,West,281,12.0,12.0,5,0.00,,,0.00,436,WeatherCatV1.11B39,2013-06-11 23:58:00,
2013-06-11 17:03:00,105.2,20.6,29.61,WNW,283,11.0,20.0,5,0.00,,,0.00,422,WeatherCatV1.11B39,2013-06-12 00:03:00,
2013-06-11 17:08:00,104.8,20.3,29.60,NW,312,9.0,14.0,5,0.00,,,0.00,403,WeatherCatV1.11B39,2013-06-12 00:08:00,
2013-06-11 17:13:00,104.2,19.9,29.61,WSW,258,11.0,14.0,5,0.00,,,0.00,387,WeatherCatV1.11B39,2013-06-12 00:13:00,
2013-06-11 17:18:00,104.6,20.2,29.60,WNW,288,11.0,11.0,5,0.00,,,0.00,371,WeatherCatV1.11B39,2013-06-12 00:18:00,
2013-06-11 17:23:00,104.5,20.1,29.60,WNW,288,13.0,16.0,5,0.00,,,0.00,352,WeatherCatV1.11B39,2013-06-12 00:23:00,
2013-06-11 17:28:00,104.1,24.1,29.60,WNW,294,8.0,12.0,6,0.00,,,0.00,339,WeatherCatV1.11B39,2013-06-12 00:28:00,
2013-06-11 17:33:00,104.0,24.1,29.60,WNW,299,10.0,15.0,6,0.00,,,0.00,320,WeatherCatV1.11B39,2013-06-12 00:33:00,
2013-06-11 17:38:00,103.8,23.9,29.60,WNW,292,5.0,14.0,6,0.00,,,0.00,302,WeatherCatV1.11B39,2013-06-12 00:38:00,
2013-06-11 17:43:00,103.6,23.8,29.60,WSW,254,13.0,13.0,6,0.00,,,0.00,288,WeatherCatV1.11B39,2013-06-12 00:43:00,
2013-06-11 17:48:00,103.3,23.6,29.60,WNW,288,12.0,14.0,6,0.00,,,0.00,272,WeatherCatV1.11B39,2013-06-12 00:48:00,
2013-06-11 17:53:00,103.0,23.4,29.60,WNW,285,11.0,14.0,6,0.00,,,0.00,253,WeatherCatV1.11B39,2013-06-12 00:53:00,
2013-06-11 17:58:00,102.8,23.2,29.60,NW,310,11.0,14.0,6,0.00,,,0.00,239,WeatherCatV1.11B39,2013-06-12 00:58:00,
2013-06-11 18:03:00,102.7,23.2,29.60,West,261,9.0,15.0,6,0.00,,,0.00,221,WeatherCatV1.11B39,2013-06-12 01:03:00,
2013-06-11 18:08:00,102.3,22.9,29.60,WNW,296,12.0,16.0,6,0.00,,,0.00,200,WeatherCatV1.11B39,2013-06-12 01:08:00,
2013-06-11 18:13:00,102.2,22.8,29.61,WNW,292,8.0,15.0,6,0.00,,,0.00,183,WeatherCatV1.11B39,2013-06-12 01:13:00,
2013-06-11 18:18:00,101.9,22.6,29.61,WNW,282,6.0,15.0,6,0.00,,,0.00,165,WeatherCatV1.11B39,2013-06-12 01:18:00,
2013-06-11 18:23:00,101.7,22.5,29.61,NW,311,6.0,7.0,6,0.00,,,0.00,142,WeatherCatV1.11B39,2013-06-12 01:23:00,
2013-06-11 18:28:00,101.4,22.2,29.61,West,274,9.0,9.0,6,0.00,,,0.00,118,WeatherCatV1.11B39,2013-06-12 01:28:00,
2013-06-11 18:33:00,101.1,22.0,29.62,WNW,289,6.0,17.0,6,0.00,,,0.00,102,WeatherCatV1.11B39,2013-06-12 01:33:00,
2013-06-11 18:38:00,100.8,21.8,29.62,WNW,303,11.0,14.0,6,0.00,,,0.00,90,WeatherCatV1.11B39,2013-06-12 01:38:00,
2013-06-11 18:43:00,100.4,25.2,29.62,West,261,6.0,12.0,7,0.00,,,0.00,69,WeatherCatV1.11B39,2013-06-12 01:43:00,
2013-06-11 18:48:00,100.1,25.0,29.62,West,265,10.0,14.0,7,0.00,,,0.00,63,WeatherCatV1.11B39,2013-06-12 01:48:00,
2013-06-11 18:53:00,99.9,24.8,29.62,West,278,3.0,6.0,7,0.00,,,0.00,46,WeatherCatV1.11B39,2013-06-12 01:53:00,
2013-06-11 18:58:00,99.5,24.5,29.62,NW,324,8.0,15.0,7,0.00,,,0.00,26,WeatherCatV1.11B39,2013-06-12 01:58:00,
2013-06-11 19:03:00,99.0,24.2,29.63,WNW,298,11.0,11.0,7,0.00,,,0.00,19,WeatherCatV1.11B39,2013-06-12 02:03:00,
2013-06-11 19:08:00,98.5,23.8,29.62,West,266,2.0,8.0,7,0.00,,,0.00,12,WeatherCatV1.11B39,2013-06-12 02:08:00,
2013-06-11 19:13:00,98.0,23.5,29.63,WNW,300,10.0,11.0,7,0.00,,,0.00,9,WeatherCatV1.11B39,2013-06-12 02:13:00,
2013-06-11 19:18:00,97.7,26.5,29.63,WNW,282,4.0,9.0,8,0.00,,,0.00,7,WeatherCatV1.11B39,2013-06-12 02:18:00,
2013-06-11 19:23:00,97.3,26.2,29.63,WNW,299,3.0,6.0,8,0.00,,,0.00,5,WeatherCatV1.11B39,2013-06-12 02:23:00,
2013-06-11 19:28:00,96.8,25.8,29.63,NW,315,3.0,6.0,8,0.00,,,0.00,0,WeatherCatV1.11B39,2013-06-12 02:28:00,
2013-06-11 19:33:00,96.2,25.4,29.63,WNW,283,1.0,4.0,8,0.00,,,0.00,0,WeatherCatV1.11B39,2013-06-12 02:33:00,
2013-06-11 19:38:00,95.5,24.8,29.63,NNW,343,1.0,8.0,8,0.00,,,0.00,0,WeatherCatV1.11B39,2013-06-12 02:38:00,
2013-06-11 19:43:00,95.5,27.7,29.63,NNW,339,2.0,3.0,9,0.00,,,0.00,0,WeatherCatV1.11B39,2013-06-12 02:43:00,
2013-06-11 19:48:00,95.3,27.5,29.63,NW,320,2.0,3.0,9,0.00,,,0.00,0,WeatherCatV1.11B39,2013-06-12 02:48:00,
2013-06-11 19:53:00,95.0,27.3,29.64,WNW,295,3.0,3.0,9,0.00,,,0.00,0,WeatherCatV1.11B39,2013-06-12 02:53:00,
2013-06-11 19:58:00,94.7,27.1,29.64,NW,318,3.0,5.0,9,0.00,,,0.00,0,WeatherCatV1.11B39,2013-06-12 02:58:00,
2013-06-11 20:03:00,94.4,26.9,29.64,NW,321,4.0,8.0,9,0.00,,,0.00,0,WeatherCatV1.11B39,2013-06-12 03:03:00,
2013-06-11 20:08:00,95.0,27.3,29.64,NW,323,6.0,8.0,9,0.00,,,0.00,0,WeatherCatV1.11B39,2013-06-12 03:08:00,
2013-06-11 20:13:00,94.7,27.1,29.64,NW,324,1.0,4.0,9,0.00,,,0.00,0,WeatherCatV1.11B39,2013-06-12 03:13:00,
2013-06-11 20:18:00,94.5,26.9,29.64,North,359,5.0,6.0,9,0.00,,,0.00,0,WeatherCatV1.11B39,2013-06-12 03:18:00,
2013-06-11 20:23:00,94.7,29.7,29.64,North,2,2.0,3.0,10,0.00,,,0.00,0,WeatherCatV1.11B39,2013-06-12 03:23:00,
2013-06-11 20:28:00,94.1,26.6,29.64,NNW,329,4.0,6.0,9,0.00,,,0.00,0,WeatherCatV1.11B39,2013-06-12 03:28:00,
2013-06-11 20:33:00,94.5,29.5,29.65,NNW,327,1.0,3.0,10,0.00,,,0.00,0,WeatherCatV1.11B39,2013-06-12 03:33:00,
2013-06-11 20:38:00,94.5,29.5,29.65,NNE,12,0.0,2.0,10,0.00,,,0.00,0,WeatherCatV1.11B39,2013-06-12 03:38:00,
2013-06-11 20:43:00,93.3,30.9,29.65,ESE,109,2.0,5.0,11,0.00,,,0.00,0,WeatherCatV1.11B39,2013-06-12 03:43:00,
2013-06-11 20:48:00,91.9,32.0,29.65,ESE,109,0.0,1.0,12,0.00,,,0.00,0,WeatherCatV1.11B39,2013-06-12 03:48:00,
2013-06-11 20:53:00,90.7,31.1,29.66,ESE,109,0.0,1.0,12,0.00,,,0.00,0,WeatherCatV1.11B39,2013-06-12 03:53:00,
2013-06-11 20:59:00,89.4,30.1,29.66,ESE,109,1.0,2.0,12,0.00,,,0.00,0,WeatherCatV1.11B39,2013-06-12 03:59:00,
2013-06-11 21:01:00,89.2,29.9,29.66,ESE,109,0.0,0.0,12,0.00,,,0.00,0,WeatherCatV1.11B39,2013-06-12 04:01:00,
2013-06-11 21:06:00,88.6,29.5,29.66,ESE,109,0.0,0.0,12,0.00,,,0.00,0,WeatherCatV1.11B39,2013-06-12 04:06:00,
2013-06-11 21:11:00,88.5,29.4,29.66,East,99,3.0,4.0,12,0.00,,,0.00,0,WeatherCatV1.11B39,2013-06-12 04:11:00,
2013-06-11 21:16:00,88.5,29.4,29.66,East,99,1.0,3.0,12,0.00,,,0.00,0,WeatherCatV1.11B39,2013-06-12 04:16:00,
2013-06-11 21:21:00,88.2,31.1,29.66,East,99,0.0,0.0,13,0.00,,,0.00,0,WeatherCatV1.11B39,2013-06-12 04:21:00,
2013-06-11 21:26:00,87.8,28.9,29.67,East,99,0.0,2.0,12,0.00,,,0.00,0,WeatherCatV1.11B39,2013-06-12 04:26:00,
2013-06-11 21:31:00,87.3,28.5,29.67,East,91,1.0,4.0,12,0.00,,,0.00,0,WeatherCatV1.11B39,2013-06-12 04:31:00,
2013-06-11 21:36:00,88.0,26.9,29.67,East,96,1.0,3.0,11,0.00,,,0.00,0,WeatherCatV1.11B39,2013-06-12 04:36:00,
2013-06-11 21:41:00,87.9,28.9,29.67,East,93,3.0,3.0,12,0.00,,,0.00,0,WeatherCatV1.11B39,2013-06-12 04:41:00,
2013-06-11 21:46:00,87.6,28.7,29.67,East,93,1.0,2.0,12,0.00,,,0.00,0,WeatherCatV1.11B39,2013-06-12 04:46:00,
2013-06-11 21:51:00,87.7,26.7,29.67,ESE,104,1.0,2.0,11,0.00,,,0.00,0,WeatherCatV1.11B39,2013-06-12 04:51:00,
2013-06-11 21:56:00,88.2,29.2,29.67,ESE,114,4.0,4.0,12,0.00,,,0.00,0,WeatherCatV1.11B39,2013-06-12 04:56:00,
2013-06-11 22:01:00,88.5,25.0,29.68,ESE,104,0.0,4.0,10,0.00,,,0.00,0,WeatherCatV1.11B39,2013-06-12 05:01:00,
2013-06-11 22:06:00,88.7,25.1,29.68,ESE,108,3.0,4.0,10,0.00,,,0.00,0,WeatherCatV1.11B39,2013-06-12 05:06:00,
2013-06-11 22:11:00,88.6,25.1,29.68,ESE,107,1.0,2.0,10,0.00,,,0.00,0,WeatherCatV1.11B39,2013-06-12 05:11:00,
2013-06-11 22:16:00,88.2,24.8,29.68,ESE,107,0.0,1.0,10,0.00,,,0.00,0,WeatherCatV1.11B39,2013-06-12 05:16:00,
2013-06-11 22:21:00,87.6,26.6,29.68,ESE,109,1.0,3.0,11,0.00,,,0.00,0,WeatherCatV1.11B39,2013-06-12 05:21:00,
2013-06-11 22:26:00,87.1,26.2,29.68,ESE,109,0.0,2.0,11,0.00,,,0.00,0,WeatherCatV1.11B39,2013-06-12 05:26:00,
2013-06-11 22:31:00,86.6,25.8,29.68,ESE,109,1.0,1.0,11,0.00,,,0.00,0,WeatherCatV1.11B39,2013-06-12 05:31:00,
2013-06-11 22:36:00,86.5,25.7,29.68,ESE,107,2.0,3.0,11,0.00,,,0.00,0,WeatherCatV1.11B39,2013-06-12 05:36:00,
2013-06-11 22:41:00,86.5,25.7,29.68,ESE,105,1.0,2.0,11,0.00,,,0.00,0,WeatherCatV1.11B39,2013-06-12 05:41:00,
2013-06-11 22:46:00,86.5,25.7,29.68,ESE,109,3.0,3.0,11,0.00,,,0.00,0,WeatherCatV1.11B39,2013-06-12 05:46:00,
2013-06-11 22:51:00,86.7,25.9,29.68,ESE,107,0.0,2.0,11,0.00,,,0.00,0,WeatherCatV1.11B39,2013-06-12 05:51:00,
2013-06-11 22:56:00,86.0,27.5,29.68,ESE,107,0.0,1.0,12,0.00,,,0.00,0,WeatherCatV1.11B39,2013-06-12 05:56:00,
2013-06-11 23:01:00,85.5,27.1,29.68,ESE,107,1.0,2.0,12,0.00,,,0.00,0,WeatherCatV1.11B39,2013-06-12 06:01:00,
2013-06-11 23:06:00,84.6,26.4,29.69,ESE,107,1.0,1.0,12,0.00,,,0.00,0,WeatherCatV1.11B39,2013-06-12 06:06:00,
2013-06-11 23:11:00,84.0,27.9,29.69,ESE,107,0.0,2.0,13,0.00,,,0.00,0,WeatherCatV1.11B39,2013-06-12 06:11:00,
2013-06-11 23:16:00,82.9,27.0,29.69,ESE,107,0.0,1.0,13,0.00,,,0.00,0,WeatherCatV1.11B39,2013-06-12 06:16:00,
2013-06-11 23:21:00,81.9,28.0,29.69,ESE,107,0.0,2.0,14,0.00,,,0.00,0,WeatherCatV1.11B39,2013-06-12 06:21:00,
2013-06-11 23:26:00,81.2,29.1,29.69,ESE,107,0.0,1.0,15,0.00,,,0.00,0,WeatherCatV1.11B39,2013-06-12 06:26:00,
2013-06-11 23:31:00,81.0,27.3,29.69,ESE,107,1.0,1.0,14,0.00,,,0.00,0,WeatherCatV1.11B39,2013-06-12 06:31:00,
2013-06-11 23:36:00,80.8,28.8,29.69,ESE,107,0.0,0.0,15,0.00,,,0.00,0,WeatherCatV1.11B39,2013-06-12 06:36:00,
2013-06-11 23:41:00,80.3,28.4,29.69,ESE,107,0.0,0.0,15,0.00,,,0.00,0,WeatherCatV1.11B39,2013-06-12 06:41:00,
2013-06-11 23:46:00,79.9,28.1,29.69,ESE,107,0.0,2.0,15,0.00,,,0.00,0,WeatherCatV1.11B39,2013-06-12 06:46:00,
2013-06-11 23:51:00,79.8,29.6,29.69,ESE,107,0.0,0.0,16,0.00,,,0.00,0,WeatherCatV1.11B39,2013-06-12 06:51:00,
2013-06-11 23:56:00,79.4,29.3,29.69,ESE,107,1.0,2.0,16,0.00,,,0.00,0,WeatherCatV1.11B39,2013-06-12 06:56:00,